Data for 05/19/2007

Time Sea-Level Adjusted Pressure Absolute Pressure Temperature Relative Humidity Dew Point   
(mb) (inHg) (mb) (inHg) (C) (F) (%) (C) (F)
00:05 1017 30.03 847 25.01 15.4 59.8 52 5.8 42.4
00:10 1017 30.03 846 24.98 15.6 60 52 5.7 42.3
00:15 1017 30.03 846 24.98 15.7 60.2 52 6 42.8
00:20 1017 30.03 846 24.98 15.6 60 53 6 42.9
00:25 1017 30.03 846 24.98 15.4 59.7 53 5.9 42.6
00:30 1017 30.03 846 24.98 15.4 59.8 52 5.8 42.4
00:35 1017 30.03 846 24.98 15.4 59.7 52 5.8 42.4
00:40 1017 30.03 846 24.98 15.4 59.7 52 5.6 42.2
00:45 1017 30.03 846 24.98 15.5 59.8 52 5.7 42.3
00:50 1017 30.03 846 24.98 15.4 59.6 52 5.7 42.3
00:55 1017 30.03 846 24.98 15.3 59.5 52 5.7 42.2
01:00 1017 30.03 846 24.98 15.3 59.5 52 5.6 42.1
01:05 1017 30.03 846 24.98 15.3 59.5 52 5.7 42.2
01:10 1017 30.03 846 24.98 15.2 59.3 53 5.7 42.2
01:15 1017 30.03 846 24.98 15.1 59.2 53 5.7 42.3
01:20 1017 30.03 846 24.98 15.1 59.2 52 5.5 41.9
01:25 1017 30.03 846 24.98 15.2 59.3 53 5.8 42.4
01:30 1017 30.03 846 24.98 15 59.1 54 5.8 42.4
01:35 1017 30.03 846 24.98 15 58.9 54 5.9 42.6
01:40 1017 30.03 846 24.98 14.8 58.7 55 5.9 42.6
01:45 1017 30.03 846 24.98 14.8 58.7 55 6 42.8
01:50 1017 30.03 846 24.98 14.7 58.4 56 6.1 43
01:55 1017 30.03 846 24.98 14.5 58.2 57 6.2 43.2
02:00 1016 30 846 24.98 14.5 58 57 6.2 43.2
02:05 1016 30 846 24.98 14.4 58 57 6.1 43
02:10 1016 30 846 24.98 14.4 57.9 57 6.1 43
02:15 1016 30 845 24.95 14.3 57.7 58 6.2 43.1
02:20 1016 30 845 24.95 14.2 57.6 58 6.1 43
02:25 1016 30 846 24.98 14.2 57.6 58 6.1 43.1
02:30 1016 30 845 24.95 14.1 57.3 59 6.2 43.2
02:35 1016 30 845 24.95 14.1 57.3 58 5.9 42.6
02:40 1016 30 845 24.95 14.1 57.4 58 6 42.7
02:45 1016 30 845 24.95 14.1 57.4 58 6 42.8
02:50 1016 30 846 24.98 14.2 57.5 57 5.8 42.5
02:55 1016 30 845 24.95 14.2 57.6 58 6.1 43
03:00 1016 30 845 24.95 14 57.2 59 6.1 43
03:05 1016 30 846 24.98 13.9 57.1 59 6.2 43.1
03:10 1016 30 845 24.95 13.8 56.9 59 6.1 42.9
03:15 1016 30 845 24.95 13.8 56.8 59 6.1 42.9
03:20 1016 30 845 24.95 13.8 56.9 59 5.9 42.7
03:25 1016 30 845 24.95 13.8 56.8 59 6 42.9
03:30 1016 30 845 24.95 13.9 57 58 5.7 42.3
03:35 1016 30 845 24.95 14 57.2 58 5.8 42.5
03:40 1016 30 845 24.95 14 57.1 57 5.7 42.3
03:45 1016 30 846 24.98 14 57.1 58 6 42.8
03:50 1016 30 846 24.98 13.7 56.7 60 6.2 43.1
03:55 1016 30 846 24.98 13.4 56.1 62 6.3 43.4
04:00 1016 30 846 24.98 13.2 55.8 62 6.2 43.2
04:05 1016 30 846 24.98 13.1 55.6 63 6.2 43.2
04:10 1016 30 846 24.98 13.1 55.6 62 6 42.8
04:15 1016 30 846 24.98 13.3 55.9 61 6 42.8
04:20 1016 30 846 24.98 13.3 55.9 61 6 42.9
04:25 1016 30 846 24.98 13.2 55.8 61 6 42.9
04:30 1016 30 846 24.98 13.2 55.8 62 6 42.9
04:35 1016 30 846 24.98 13.1 55.6 62 6 42.8
04:40 1016 30 846 24.98 12.9 55.2 62 5.9 42.6
04:45 1016 30 846 24.98 12.9 55.2 62 5.8 42.5
04:50 1016 30 846 24.98 13 55.3 61 5.8 42.4
04:55 1016 30 846 24.98 13.2 55.7 61 5.8 42.4
05:00 1016 30 846 24.98 13.3 56 60 5.8 42.4
05:05 1016 30 846 24.98 13.4 56.1 60 5.9 42.6
05:10 1016 30 845 24.95 13.3 55.9 60 5.8 42.5
05:15 1016 30 845 24.95 13.3 55.9 61 5.8 42.5
05:20 1016 30 845 24.95 13.3 55.9 60 5.9 42.6
05:25 1016 30 845 24.95 13.3 55.9 61 5.9 42.6
05:30 1016 30 845 24.95 13.2 55.8 61 6 42.8
05:35 1016 30 845 24.95 13.3 55.9 61 6 42.8
05:40 1016 30 845 24.95 13.2 55.8 61 6 42.9
05:45 1016 30 845 24.95 13.3 55.9 62 6.1 43
05:50 1016 30 845 24.95 13.3 55.9 62 6.2 43.2
05:55 1016 30 845 24.95 13.3 55.9 62 6.2 43.1
06:00 1016 30 845 24.95 13.4 56.1 61 6.1 43
06:05 1016 30 845 24.95 13.4 56.2 62 6.3 43.3
06:10 1016 30 845 24.95 13.4 56.2 61 6.1 43
06:15 1016 30 845 24.95 13.4 56.2 62 6.3 43.3
06:20 1016 30 845 24.95 13.3 56 62 6.3 43.3
06:25 1016 30 845 24.95 13.3 55.9 62 6.3 43.3
06:30 1016 30 845 24.95 13.3 56 62 6.4 43.5
06:35 1016 30 845 24.95 13.3 56 62 6.3 43.4
06:40 1016 30 845 24.95 13.3 56 63 6.4 43.5
06:45 1016 30 845 24.95 13.4 56.1 62 6.4 43.5
06:50 1016 30 845 24.95 13.5 56.3 62 6.3 43.4
06:55 1016 30 845 24.95 13.6 56.4 61 6.4 43.4
07:00 1016 30 845 24.95 13.6 56.5 61 6.2 43.2
07:05 1016 30 845 24.95 13.7 56.6 61 6.4 43.5
07:10 1016 30 845 24.95 13.7 56.7 60 6.2 43.2
07:15 1016 30 845 24.95 13.8 56.8 60 6.3 43.3
07:20 1016 30 846 24.98 13.9 57 59 6.1 43
07:25 1016 30 846 24.98 14 57.3 59 6.2 43.2
07:30 1016 30 845 24.95 14 57.3 59 6.2 43.1
07:35 1016 30 845 24.95 14.1 57.3 58 6.1 43
07:40 1016 30 846 24.98 14.1 57.4 58 6 42.8
07:45 1016 30 846 24.98 14.2 57.6 58 6.2 43.1
07:50 1016 30 846 24.98 14.3 57.8 57 6 42.7
07:55 1016 30 846 24.98 14.5 58.1 56 5.9 42.7
08:00 1017 30.03 846 24.98 14.5 58.1 57 6.1 42.9
08:05 1017 30.03 846 24.98 14.5 58.1 56 5.9 42.7
08:10 1017 30.03 846 24.98 14.6 58.4 55 5.9 42.6
08:15 1017 30.03 846 24.98 14.9 58.9 55 6 42.9
08:20 1016 30 846 24.98 14.9 58.8 56 6.3 43.4
08:25 1017 30.03 846 24.98 14.8 58.6 56 6.3 43.3
08:30 1017 30.03 846 24.98 14.6 58.3 57 6.3 43.3
08:35 1017 30.03 846 24.98 14.7 58.5 56 6.1 43
08:40 1016 30 846 24.98 14.9 58.9 55 6 42.7
08:45 1016 30 846 24.98 15.3 59.5 54 6.2 43.1
08:50 1016 30 846 24.98 15.4 59.8 54 6.1 43
08:55 1016 30 846 24.98 15.5 60 53 6.2 43.1
09:00 1016 30 846 24.98 15.8 60.5 52 6.2 43.1
09:05 1016 30 845 24.95 16.1 60.9 51 6.1 43
09:10 1016 30 845 24.95 16.2 61.1 52 6.4 43.5
09:15 1016 30 845 24.95 16.1 60.9 52 6.3 43.4
09:20 1016 30 845 24.95 16.2 61.2 51 6.2 43.2
09:25 1016 30 845 24.95 16.4 61.6 50 6.1 43
09:30 1016 30 845 24.95 16.9 62.3 50 6.3 43.4
09:35 1016 30 845 24.95 17.1 62.8 49 6.4 43.6
09:40 1016 30 845 24.95 16.8 62.2 50 6.4 43.5
09:45 1016 30 845 24.95 16.7 62 50 6.3 43.3
09:50 1016 30 845 24.95 16.7 62 51 6.7 44.1
09:55 1016 30 845 24.95 16.6 61.9 51 6.6 44
10:00 1016 30 845 24.95 16.6 61.8 50 6.2 43.2
10:05 1016 30 845 24.95 16.6 61.9 51 6.6 43.8
10:10 1016 30 845 24.95 16.7 62 51 6.5 43.8
10:15 1016 30 845 24.95 16.7 62.1 52 6.9 44.3
10:20 1015 29.97 845 24.95 17 62.5 50 6.6 43.8
10:25 1015 29.97 845 24.95 17.3 63.1 50 7 44.6
10:30 1015 29.97 845 24.95 17.5 63.5 49 6.8 44.3
10:35 1015 29.97 845 24.95 17.8 64.1 48 6.8 44.3
10:40 1015 29.97 844 24.92 18 64.4 47 6.8 44.2
10:45 1015 29.97 844 24.92 18.3 65 47 6.9 44.4
10:50 1015 29.97 844 24.92 18.5 65.4 46 6.9 44.5
10:55 1015 29.97 844 24.92 18.8 65.8 47 7.3 45.1
11:00 1015 29.97 844 24.92 19 66.3 44 6.6 43.8
11:05 1015 29.97 844 24.92 19.4 66.9 43 6.5 43.7
11:10 1015 29.97 844 24.92 19.9 67.8 42 6.7 44.1
11:15 1015 29.97 844 24.92 20.2 68.4 41 6.7 44.1
11:20 1015 29.97 844 24.92 20.6 69.2 38 5.8 42.5
11:25 1015 29.97 844 24.92 21.1 70 38 6.4 43.5
11:30 1015 29.97 844 24.92 21.3 70.3 36 5.8 42.4
11:35 1015 29.97 844 24.92 21.8 71.2 34 5.3 41.6
11:40 1015 29.97 844 24.92 22.2 71.9 36 6.6 43.8
11:45 1015 29.97 844 24.92 22.1 71.8 39 7.7 45.8
11:50 1015 29.97 844 24.92 21.9 71.3 38 7.2 45
11:55 1015 29.97 844 24.92 22 71.7 39 7.8 46
12:00 1014 29.94 844 24.92 21.5 70.6 41 7.9 46.2
12:05 1014 29.94 844 24.92 21.8 71.2 40 7.7 45.8
12:10 1014 29.94 844 24.92 21.6 71 43 8.6 47.5
12:15 1014 29.94 844 24.92 22 71.5 39 7.7 45.9
12:20 1014 29.94 844 24.92 22.4 72.2 39 8.1 46.6
12:25 1014 29.94 844 24.92 21.9 71.4 39 7.3 45.1
12:30 1014 29.94 844 24.92 21.8 71.2 41 8.2 46.7
12:35 1014 29.94 844 24.92 21.8 71.2 39 7.4 45.4
12:40 1014 29.94 844 24.92 21.8 71.3 40 7.8 46
12:45 1014 29.94 844 24.92 22.2 71.9 39 7.7 45.9
12:50 1014 29.94 844 24.92 22.6 72.7 39 8 46.3
12:55 1014 29.94 844 24.92 23 73.4 36 7.4 45.4
13:00 1014 29.94 843 24.89 23 73.3 35 7.1 44.7
13:05 1014 29.94 843 24.89 22.8 73 36 7.2 44.9
13:10 1014 29.94 843 24.89 23 73.5 35 6.9 44.4
13:15 1014 29.94 843 24.89 23.7 74.6 30 5.5 41.8
13:20 1014 29.94 843 24.89 24.6 76.2 32 7.1 44.8
13:25 1014 29.94 843 24.89 24.7 76.5 33 7.4 45.3
13:30 1014 29.94 843 24.89 25 77.1 30 6.6 43.8
13:35 1014 29.94 843 24.89 26.5 79.7 28 7 44.5
13:40 1014 29.94 843 24.89 26.5 79.8 28 6.6 43.8
13:45 1014 29.94 843 24.89 26.3 79.3 28 6.8 44.2
13:50 1014 29.94 843 24.89 26.2 79.1 28 6.7 44
13:55 1013 29.91 843 24.89 26.1 79 25 5 41.1
14:00 1013 29.91 843 24.89 25.9 78.6 27 5.7 42.3
14:05 1013 29.91 843 24.89 25.9 78.6 26 5.2 41.4
14:10 1013 29.91 843 24.89 25.6 78 26 4.6 40.3
14:15 1013 29.91 842 24.86 25.2 77.4 27 5.3 41.6
14:20 1013 29.91 843 24.89 25.5 77.9 26 5.1 41.1
14:25 1013 29.91 842 24.86 25.1 77.2 21 1.8 35.3
14:30 1013 29.91 842 24.86 25.7 78.2 16 -1.6 29.1
14:35 1013 29.91 842 24.86 26 78.9 19 1 33.8
14:40 1013 29.91 842 24.86 26.1 78.9 18 0.1 32.2
14:45 1013 29.91 842 24.86 25.7 78.3 19 0.4 32.8
14:50 1013 29.91 842 24.86 25.9 78.6 16 -1.5 29.2
14:55 1013 29.91 842 24.86 25.8 78.4 15 -2.4 27.6
15:00 1013 29.91 842 24.86 26.1 79 15 -2.1 28.2
15:05 1013 29.91 842 24.86 26 78.8 16 -1.9 28.6
15:10 1013 29.91 843 24.89 25.9 78.6 20 1.2 34.1
15:15 1013 29.91 843 24.89 24.5 76 27 4.2 39.6
15:20 1013 29.91 843 24.89 23.7 74.7 27 4 39.2
15:25 1013 29.91 843 24.89 23.3 73.9 28 3.7 38.7
15:30 1013 29.91 843 24.89 22.8 73 28 3.6 38.4
15:35 1013 29.91 843 24.89 22.8 73.1 28 3.4 38.1
15:40 1014 29.94 843 24.89 22.7 72.8 26 2.3 36.2
15:45 1013 29.91 843 24.89 22.5 72.4 26 1.9 35.5
15:50 1013 29.91 843 24.89 22.2 71.9 26 2.1 35.8
15:55 1014 29.94 843 24.89 22.1 71.7 25 1.3 34.4
16:00 1014 29.94 843 24.89 22.1 71.7 25 1.1 34.1
16:05 1013 29.91 843 24.89 22 71.6 23 0.2 32.3
16:10 1013 29.91 842 24.86 22.1 71.8 22 -0.4 31.2
16:15 1013 29.91 842 24.86 22.4 72.2 23 0.7 33.3
16:20 1013 29.91 842 24.86 22.5 72.6 25 2 35.5
16:25 1013 29.91 842 24.86 22.4 72.3 26 2.1 35.7
16:30 1013 29.91 842 24.86 22.2 72 25 1.3 34.3
16:35 1013 29.91 842 24.86 22.3 72.1 25 1.4 34.6
16:40 1013 29.91 842 24.86 22.2 72 25 1.3 34.3
16:45 1013 29.91 842 24.86 22.3 72.1 24 1.1 33.9
16:50 1013 29.91 842 24.86 22.3 72.2 27 2.6 36.7
16:55 1013 29.91 842 24.86 22.3 72.1 25 1.6 34.9
17:00 1013 29.91 842 24.86 22.8 73 23 1 33.8
17:05 1013 29.91 842 24.86 22.5 72.5 24 1.2 34.1
17:10 1013 29.91 842 24.86 22.1 71.8 20 -1.9 28.5
17:15 1013 29.91 842 24.86 22.1 71.8 20 -2 28.4
17:20 1013 29.91 842 24.86 22.1 71.7 20 -1.7 29
17:25 1013 29.91 842 24.86 22.1 71.7 21 -1.3 29.7
17:30 1013 29.91 842 24.86 22.2 71.9 21 -0.9 30.4
17:35 1013 29.91 842 24.86 22.1 71.8 21 -1.1 30
17:40 1012 29.88 842 24.86 21.9 71.3 21 -1.5 29.3
17:45 1012 29.88 841 24.83 21.9 71.5 19 -2.4 27.6
17:50 1012 29.88 841 24.83 22 71.6 21 -1 30.3
17:55 1012 29.88 841 24.83 21.4 70.5 23 -0.6 30.8
18:00 1012 29.88 841 24.83 21.5 70.6 23 -0.3 31.4
18:05 1012 29.88 841 24.83 22 71.5 22 -0.4 31.4
18:10 1012 29.88 841 24.83 22.3 72.1 22 0.1 32.1
18:15 1012 29.88 841 24.83 22.4 72.3 23 0.2 32.3
18:20 1012 29.88 841 24.83 22.5 72.5 25 1.6 34.8
18:25 1012 29.88 841 24.83 22.7 72.9 22 0.4 32.7
18:30 1012 29.88 841 24.83 22.9 73.2 21 -0.1 31.8
18:35 1012 29.88 841 24.83 23.1 73.6 22 0.4 32.7
18:40 1012 29.88 841 24.83 23 73.4 24 1.3 34.3
18:45 1012 29.88 841 24.83 23.5 74.3 19 -0.9 30.4
18:50 1012 29.88 841 24.83 24 75.2 20 -0.3 31.4
18:55 1012 29.88 841 24.83 23.9 75 20 0.1 32.2
19:00 1011 29.85 841 24.83 24 75.1 19 -0.7 30.7
19:05 1011 29.85 841 24.83 24.1 75.4 18 -1.6 29.1
19:10 1011 29.85 841 24.83 24.1 75.4 18 -1.2 29.9
19:15 1011 29.85 841 24.83 24 75.2 19 -0.8 30.6
19:20 1011 29.85 840 24.81 24 75.3 19 -0.8 30.6
19:25 1011 29.85 840 24.81 23.9 75 19 -0.6 31
19:30 1011 29.85 840 24.81 23.8 74.9 21 0.1 32.2
19:35 1011 29.85 840 24.81 23.9 74.9 20 -0.3 31.5
19:40 1011 29.85 840 24.81 23.7 74.6 19 -0.8 30.6
19:45 1011 29.85 840 24.81 23.4 74.2 20 -0.4 31.3
19:50 1011 29.85 840 24.81 23.2 73.8 20 -0.7 30.8
19:55 1011 29.85 840 24.81 23.1 73.5 20 -0.7 30.7
20:00 1011 29.85 840 24.81 23.1 73.5 20 -0.9 30.4
20:05 1011 29.85 840 24.81 23.1 73.6 20 -0.6 30.8
20:10 1012 29.88 841 24.83 23 73.4 25 2 35.7
20:15 1012 29.88 841 24.83 22.7 72.9 25 1.8 35.3
20:20 1012 29.88 841 24.83 22.6 72.7 23 0.9 33.5
20:25 1012 29.88 841 24.83 22.8 73 23 0.8 33.4
20:30 1012 29.88 841 24.83 22.6 72.6 25 1.7 35
20:35 1012 29.88 841 24.83 22.1 71.8 27 2.2 35.9
20:40 1012 29.88 841 24.83 21.8 71.2 26 1.5 34.8
20:45 1012 29.88 841 24.83 21.8 71.2 27 2.2 36
20:50 1013 29.91 842 24.86 21.5 70.7 24 0.2 32.4
20:55 1012 29.88 842 24.86 21.4 70.6 26 1.5 34.7
21:00 1012 29.88 841 24.83 21.6 70.9 24 0.6 33.1
21:05 1012 29.88 841 24.83 21.8 71.2 24 0.6 33
21:10 1012 29.88 841 24.83 21.6 70.9 27 1.8 35.2
21:15 1012 29.88 842 24.86 21.2 70.1 31 3.6 38.5
21:20 1012 29.88 842 24.86 20.4 68.8 35 4.6 40.3
21:25 1013 29.91 842 24.86 19.8 67.6 37 5 41
21:30 1013 29.91 842 24.86 19.3 66.7 39 5.2 41.4
21:35 1013 29.91 842 24.86 18.9 65.9 42 5.7 42.3
21:40 1013 29.91 842 24.86 18.3 64.9 44 5.9 42.6
21:45 1013 29.91 843 24.89 17.7 63.9 46 5.9 42.7
21:50 1013 29.91 843 24.89 17.5 63.4 46 5.8 42.4
21:55 1013 29.91 843 24.89 17.3 63.1 47 5.9 42.6
22:00 1014 29.94 843 24.89 17.3 63.1 47 5.9 42.7
22:05 1014 29.94 843 24.89 16.9 62.5 49 6.2 43.2
22:10 1014 29.94 843 24.89 16.4 61.6 50 6.1 42.9
22:15 1014 29.94 843 24.89 16 60.7 51 5.8 42.5
22:20 1014 29.94 843 24.89 15.7 60.3 51 5.6 42.1
22:25 1014 29.94 843 24.89 15.5 59.9 50 5.4 41.6
22:30 1014 29.94 844 24.92 15.5 59.8 50 5.1 41.1
22:35 1014 29.94 844 24.92 15.2 59.4 50 4.9 40.8
22:40 1015 29.97 844 24.92 15.1 59.2 50 5 41
22:45 1015 29.97 844 24.92 15 59 51 5 41
22:50 1015 29.97 844 24.92 14.8 58.7 51 4.8 40.6
22:55 1015 29.97 844 24.92 14.9 58.7 50 4.7 40.5
23:00 1015 29.97 844 24.92 14.8 58.6 52 5.1 41.2
23:05 1015 29.97 844 24.92 14.4 57.9 52 4.8 40.7
23:10 1015 29.97 844 24.92 14.4 57.9 52 4.7 40.5
23:15 1015 29.97 844 24.92 14.6 58.2 51 4.7 40.4
23:20 1015 29.97 844 24.92 14.6 58.2 51 4.7 40.4
23:25 1015 29.97 844 24.92 14.4 57.9 52 4.6 40.3
23:30 1015 29.97 845 24.95 14.4 57.8 52 4.6 40.2
23:35 1015 29.97 845 24.95 14.3 57.7 52 4.6 40.3
23:40 1015 29.97 845 24.95 14.2 57.6 52 4.6 40.3
23:45 1016 30 845 24.95 14 57.3 53 4.7 40.5
23:50 1016 30 845 24.95 13.9 57 54 4.8 40.6
23:55 1016 30 845 24.95 13.6 56.5 55 4.7 40.5
24:00 1016 30 845 24.95 13.3 56 56 4.7 40.4